sensor_id;sensor_type;location;lat;lon;timestamp;P1;durP1;ratioP1;P2;durP2;ratioP2
31537;SDS011;18147;51.952;6.146;2022-09-27T00:00:58;12.15;;;2.47;;
31537;SDS011;18147;51.952;6.146;2022-09-27T00:03:24;9.02;;;2.35;;
31537;SDS011;18147;51.952;6.146;2022-09-27T00:05:59;14.57;;;2.35;;
31537;SDS011;18147;51.952;6.146;2022-09-27T00:08:43;8.60;;;2.95;;
31537;SDS011;18147;51.952;6.146;2022-09-27T00:11:24;16.63;;;3.35;;
31537;SDS011;18147;51.952;6.146;2022-09-27T00:13:53;11.40;;;3.30;;
31537;SDS011;18147;51.952;6.146;2022-09-27T00:16:20;14.38;;;3.40;;
31537;SDS011;18147;51.952;6.146;2022-09-27T00:18:47;12.20;;;3.20;;
31537;SDS011;18147;51.952;6.146;2022-09-27T00:21:12;11.82;;;3.28;;
31537;SDS011;18147;51.952;6.146;2022-09-27T00:23:38;19.67;;;3.78;;
31537;SDS011;18147;51.952;6.146;2022-09-27T00:26:04;13.88;;;3.33;;
31537;SDS011;18147;51.952;6.146;2022-09-27T00:28:31;9.48;;;2.97;;
31537;SDS011;18147;51.952;6.146;2022-09-27T00:30:58;8.82;;;2.80;;
31537;SDS011;18147;51.952;6.146;2022-09-27T00:33:24;14.07;;;4.03;;
31537;SDS011;18147;51.952;6.146;2022-09-27T00:35:50;13.20;;;3.00;;
31537;SDS011;18147;51.952;6.146;2022-09-27T00:38:15;17.80;;;3.13;;
31537;SDS011;18147;51.952;6.146;2022-09-27T00:40:41;19.13;;;3.63;;
31537;SDS011;18147;51.952;6.146;2022-09-27T00:43:25;19.50;;;4.18;;
31537;SDS011;18147;51.952;6.146;2022-09-27T00:45:54;15.93;;;3.92;;
31537;SDS011;18147;51.952;6.146;2022-09-27T00:48:26;8.48;;;2.60;;
31537;SDS011;18147;51.952;6.146;2022-09-27T00:50:56;10.77;;;3.05;;
31537;SDS011;18147;51.952;6.146;2022-09-27T00:53:35;7.53;;;2.55;;
31537;SDS011;18147;51.952;6.146;2022-09-27T00:56:19;9.18;;;2.63;;
31537;SDS011;18147;51.952;6.146;2022-09-27T00:59:01;13.00;;;2.95;;
31537;SDS011;18147;51.952;6.146;2022-09-27T01:01:32;7.43;;;2.42;;
31537;SDS011;18147;51.952;6.146;2022-09-27T01:03:59;9.18;;;2.40;;
31537;SDS011;18147;51.952;6.146;2022-09-27T01:06:30;13.98;;;2.75;;
31537;SDS011;18147;51.952;6.146;2022-09-27T01:08:55;8.85;;;2.15;;
31537;SDS011;18147;51.952;6.146;2022-09-27T01:11:27;13.77;;;2.45;;
31537;SDS011;18147;51.952;6.146;2022-09-27T01:20:06;10.10;;;1.60;;
31537;SDS011;18147;51.952;6.146;2022-09-27T01:23:05;6.38;;;1.50;;
31537;SDS011;18147;51.952;6.146;2022-09-27T01:31:30;6.82;;;1.13;;
31537;SDS011;18147;51.952;6.146;2022-09-27T01:36:37;3.95;;;1.00;;
31537;SDS011;18147;51.952;6.146;2022-09-27T01:45:22;9.07;;;1.80;;
31537;SDS011;18147;51.952;6.146;2022-09-27T01:48:27;5.85;;;1.48;;
31537;SDS011;18147;51.952;6.146;2022-09-27T01:51:05;4.38;;;1.77;;
31537;SDS011;18147;51.952;6.146;2022-09-27T01:53:34;9.68;;;2.60;;
31537;SDS011;18147;51.952;6.146;2022-09-27T01:56:18;6.28;;;1.77;;
31537;SDS011;18147;51.952;6.146;2022-09-27T01:58:57;8.50;;;2.20;;
31537;SDS011;18147;51.952;6.146;2022-09-27T02:01:25;12.05;;;2.17;;
31537;SDS011;18147;51.952;6.146;2022-09-27T02:03:53;8.48;;;3.28;;
31537;SDS011;18147;51.952;6.146;2022-09-27T02:06:44;14.25;;;2.40;;
31537;SDS011;18147;51.952;6.146;2022-09-27T02:09:22;8.77;;;2.42;;
31537;SDS011;18147;51.952;6.146;2022-09-27T02:12:29;10.80;;;1.90;;
31537;SDS011;18147;51.952;6.146;2022-09-27T02:15:03;3.60;;;1.80;;
31537;SDS011;18147;51.952;6.146;2022-09-27T02:20:40;6.95;;;1.85;;
31537;SDS011;18147;51.952;6.146;2022-09-27T02:23:21;7.60;;;1.88;;
31537;SDS011;18147;51.952;6.146;2022-09-27T02:26:00;4.32;;;1.63;;
31537;SDS011;18147;51.952;6.146;2022-09-27T02:28:38;8.77;;;1.50;;
31537;SDS011;18147;51.952;6.146;2022-09-27T02:31:08;8.98;;;1.42;;
31537;SDS011;18147;51.952;6.146;2022-09-27T02:36:10;6.45;;;1.30;;
31537;SDS011;18147;51.952;6.146;2022-09-27T02:38:36;6.18;;;1.52;;
31537;SDS011;18147;51.952;6.146;2022-09-27T02:41:02;9.23;;;2.00;;
31537;SDS011;18147;51.952;6.146;2022-09-27T02:43:29;8.25;;;1.30;;
31537;SDS011;18147;51.952;6.146;2022-09-27T03:00:15;6.65;;;1.70;;
31537;SDS011;18147;51.952;6.146;2022-09-27T03:03:12;10.13;;;1.73;;
31537;SDS011;18147;51.952;6.146;2022-09-27T03:08:28;8.70;;;1.20;;
31537;SDS011;18147;51.952;6.146;2022-09-27T03:10:54;4.65;;;1.42;;
31537;SDS011;18147;51.952;6.146;2022-09-27T03:13:19;9.85;;;1.63;;
31537;SDS011;18147;51.952;6.146;2022-09-27T03:15:46;13.63;;;1.77;;
31537;SDS011;18147;51.952;6.146;2022-09-27T03:18:47;10.57;;;1.35;;
31537;SDS011;18147;51.952;6.146;2022-09-27T03:21:38;5.00;;;1.67;;
31537;SDS011;18147;51.952;6.146;2022-09-27T03:24:04;10.60;;;1.83;;
31537;SDS011;18147;51.952;6.146;2022-09-27T03:26:30;5.78;;;1.30;;
31537;SDS011;18147;51.952;6.146;2022-09-27T03:28:56;9.38;;;1.90;;
31537;SDS011;18147;51.952;6.146;2022-09-27T03:31:21;7.50;;;1.75;;
31537;SDS011;18147;51.952;6.146;2022-09-27T03:34:10;9.82;;;1.60;;
31537;SDS011;18147;51.952;6.146;2022-09-27T03:36:36;7.45;;;1.85;;
31537;SDS011;18147;51.952;6.146;2022-09-27T03:39:01;5.20;;;1.63;;
31537;SDS011;18147;51.952;6.146;2022-09-27T03:41:27;7.85;;;1.67;;
31537;SDS011;18147;51.952;6.146;2022-09-27T03:43:53;10.70;;;2.75;;
31537;SDS011;18147;51.952;6.146;2022-09-27T03:46:21;9.73;;;1.55;;
31537;SDS011;18147;51.952;6.146;2022-09-27T03:48:48;8.25;;;1.48;;
31537;SDS011;18147;51.952;6.146;2022-09-27T03:51:13;16.05;;;1.90;;
31537;SDS011;18147;51.952;6.146;2022-09-27T03:53:39;11.35;;;2.63;;
31537;SDS011;18147;51.952;6.146;2022-09-27T03:56:05;7.13;;;1.38;;
31537;SDS011;18147;51.952;6.146;2022-09-27T03:58:30;10.27;;;1.73;;
31537;SDS011;18147;51.952;6.146;2022-09-27T04:00:57;4.28;;;1.42;;
31537;SDS011;18147;51.952;6.146;2022-09-27T04:03:22;10.98;;;1.90;;
31537;SDS011;18147;51.952;6.146;2022-09-27T04:06:06;7.28;;;1.83;;
31537;SDS011;18147;51.952;6.146;2022-09-27T04:08:38;9.00;;;1.60;;
31537;SDS011;18147;51.952;6.146;2022-09-27T04:11:05;7.60;;;2.15;;
31537;SDS011;18147;51.952;6.146;2022-09-27T04:13:31;10.20;;;2.45;;
31537;SDS011;18147;51.952;6.146;2022-09-27T04:15:56;13.63;;;2.75;;
31537;SDS011;18147;51.952;6.146;2022-09-27T04:18:57;18.50;;;2.80;;
31537;SDS011;18147;51.952;6.146;2022-09-27T04:21:44;10.88;;;3.75;;
31537;SDS011;18147;51.952;6.146;2022-09-27T04:24:10;10.48;;;2.65;;
31537;SDS011;18147;51.952;6.146;2022-09-27T04:26:37;12.70;;;2.75;;
31537;SDS011;18147;51.952;6.146;2022-09-27T04:29:09;11.52;;;3.30;;
31537;SDS011;18147;51.952;6.146;2022-09-27T04:31:37;6.85;;;2.53;;
31537;SDS011;18147;51.952;6.146;2022-09-27T04:34:38;14.55;;;2.40;;
31537;SDS011;18147;51.952;6.146;2022-09-27T04:37:23;6.00;;;2.20;;
31537;SDS011;18147;51.952;6.146;2022-09-27T04:39:53;13.98;;;2.10;;
31537;SDS011;18147;51.952;6.146;2022-09-27T04:42:18;17.30;;;2.60;;
31537;SDS011;18147;51.952;6.146;2022-09-27T04:44:44;11.68;;;2.25;;
31537;SDS011;18147;51.952;6.146;2022-09-27T04:47:10;20.92;;;3.80;;
31537;SDS011;18147;51.952;6.146;2022-09-27T04:49:36;11.40;;;2.92;;
31537;SDS011;18147;51.952;6.146;2022-09-27T04:52:03;18.67;;;2.80;;
31537;SDS011;18147;51.952;6.146;2022-09-27T04:54:30;6.13;;;2.38;;
31537;SDS011;18147;51.952;6.146;2022-09-27T04:57:06;14.80;;;4.05;;
31537;SDS011;18147;51.952;6.146;2022-09-27T04:59:32;11.45;;;2.95;;
31537;SDS011;18147;51.952;6.146;2022-09-27T05:01:57;13.38;;;3.35;;
31537;SDS011;18147;51.952;6.146;2022-09-27T05:04:44;11.45;;;2.42;;
31537;SDS011;18147;51.952;6.146;2022-09-27T05:07:10;9.43;;;2.25;;
31537;SDS011;18147;51.952;6.146;2022-09-27T05:09:41;11.60;;;2.40;;
31537;SDS011;18147;51.952;6.146;2022-09-27T05:12:07;19.88;;;3.50;;
31537;SDS011;18147;51.952;6.146;2022-09-27T05:14:33;21.63;;;3.33;;
31537;SDS011;18147;51.952;6.146;2022-09-27T05:17:09;9.23;;;2.30;;
31537;SDS011;18147;51.952;6.146;2022-09-27T05:19:53;12.63;;;2.58;;
31537;SDS011;18147;51.952;6.146;2022-09-27T05:22:31;17.38;;;2.53;;
31537;SDS011;18147;51.952;6.146;2022-09-27T05:24:57;9.65;;;2.63;;
31537;SDS011;18147;51.952;6.146;2022-09-27T05:27:23;14.63;;;2.35;;
31537;SDS011;18147;51.952;6.146;2022-09-27T05:29:49;8.18;;;2.15;;
31537;SDS011;18147;51.952;6.146;2022-09-27T05:32:20;7.35;;;2.10;;
31537;SDS011;18147;51.952;6.146;2022-09-27T05:34:50;7.38;;;2.10;;
31537;SDS011;18147;51.952;6.146;2022-09-27T05:37:17;21.30;;;3.15;;
31537;SDS011;18147;51.952;6.146;2022-09-27T05:39:43;6.35;;;1.60;;
31537;SDS011;18147;51.952;6.146;2022-09-27T05:42:11;12.98;;;2.40;;
31537;SDS011;18147;51.952;6.146;2022-09-27T05:44:40;12.30;;;2.47;;
31537;SDS011;18147;51.952;6.146;2022-09-27T05:47:06;14.55;;;3.88;;
31537;SDS011;18147;51.952;6.146;2022-09-27T05:49:32;13.02;;;2.70;;
31537;SDS011;18147;51.952;6.146;2022-09-27T05:51:59;12.10;;;2.42;;
31537;SDS011;18147;51.952;6.146;2022-09-27T05:54:26;9.70;;;2.72;;
31537;SDS011;18147;51.952;6.146;2022-09-27T05:56:54;9.82;;;2.47;;
31537;SDS011;18147;51.952;6.146;2022-09-27T05:59:44;8.13;;;2.42;;
31537;SDS011;18147;51.952;6.146;2022-09-27T06:02:20;8.45;;;3.00;;
31537;SDS011;18147;51.952;6.146;2022-09-27T06:05:05;5.50;;;1.45;;
31537;SDS011;18147;51.952;6.146;2022-09-27T06:07:50;3.38;;;1.50;;
31537;SDS011;18147;51.952;6.146;2022-09-27T06:10:24;9.57;;;1.85;;
31537;SDS011;18147;51.952;6.146;2022-09-27T06:12:49;10.02;;;2.13;;
31537;SDS011;18147;51.952;6.146;2022-09-27T06:15:27;5.38;;;1.30;;
31537;SDS011;18147;51.952;6.146;2022-09-27T06:17:54;7.68;;;1.50;;
31537;SDS011;18147;51.952;6.146;2022-09-27T06:20:20;7.40;;;2.78;;
31537;SDS011;18147;51.952;6.146;2022-09-27T06:22:46;14.45;;;1.88;;
31537;SDS011;18147;51.952;6.146;2022-09-27T06:25:16;5.20;;;1.67;;
31537;SDS011;18147;51.952;6.146;2022-09-27T06:27:56;5.32;;;1.90;;
31537;SDS011;18147;51.952;6.146;2022-09-27T06:30:25;7.07;;;1.50;;
31537;SDS011;18147;51.952;6.146;2022-09-27T06:32:56;4.03;;;1.65;;
31537;SDS011;18147;51.952;6.146;2022-09-27T06:35:29;7.55;;;1.50;;
31537;SDS011;18147;51.952;6.146;2022-09-27T06:37:55;3.08;;;1.20;;
31537;SDS011;18147;51.952;6.146;2022-09-27T06:40:22;6.70;;;1.60;;
31537;SDS011;18147;51.952;6.146;2022-09-27T06:42:53;4.70;;;1.40;;
31537;SDS011;18147;51.952;6.146;2022-09-27T06:45:36;8.50;;;1.65;;
31537;SDS011;18147;51.952;6.146;2022-09-27T06:48:20;7.57;;;1.98;;
31537;SDS011;18147;51.952;6.146;2022-09-27T06:51:02;3.95;;;1.00;;
31537;SDS011;18147;51.952;6.146;2022-09-27T06:53:29;7.47;;;1.20;;
31537;SDS011;18147;51.952;6.146;2022-09-27T06:55:58;2.22;;;1.13;;
31537;SDS011;18147;51.952;6.146;2022-09-27T06:58:28;7.38;;;1.02;;
31537;SDS011;18147;51.952;6.146;2022-09-27T07:01:32;3.00;;;1.02;;
31537;SDS011;18147;51.952;6.146;2022-09-27T07:04:23;3.65;;;0.90;;
31537;SDS011;18147;51.952;6.146;2022-09-27T07:07:05;3.35;;;1.02;;
31537;SDS011;18147;51.952;6.146;2022-09-27T07:09:36;1.52;;;1.00;;
31537;SDS011;18147;51.952;6.146;2022-09-27T07:12:05;5.30;;;1.20;;
31537;SDS011;18147;51.952;6.146;2022-09-27T07:14:31;0.90;;;0.90;;
31537;SDS011;18147;51.952;6.146;2022-09-27T07:16:59;3.70;;;1.00;;
31537;SDS011;18147;51.952;6.146;2022-09-27T07:19:28;3.58;;;1.00;;
31537;SDS011;18147;51.952;6.146;2022-09-27T07:21:54;4.10;;;1.45;;
31537;SDS011;18147;51.952;6.146;2022-09-27T07:24:21;6.70;;;2.15;;
31537;SDS011;18147;51.952;6.146;2022-09-27T07:26:47;4.80;;;1.42;;
31537;SDS011;18147;51.952;6.146;2022-09-27T07:29:15;2.30;;;1.42;;
31537;SDS011;18147;51.952;6.146;2022-09-27T07:31:40;3.40;;;1.58;;
31537;SDS011;18147;51.952;6.146;2022-09-27T07:34:07;8.70;;;1.33;;
31537;SDS011;18147;51.952;6.146;2022-09-27T07:36:33;5.05;;;0.98;;
31537;SDS011;18147;51.952;6.146;2022-09-27T07:38:58;1.67;;;1.20;;
31537;SDS011;18147;51.952;6.146;2022-09-27T07:41:25;4.03;;;1.90;;
31537;SDS011;18147;51.952;6.146;2022-09-27T07:43:51;6.97;;;1.38;;
31537;SDS011;18147;51.952;6.146;2022-09-27T07:46:18;6.07;;;2.47;;
31537;SDS011;18147;51.952;6.146;2022-09-27T07:48:52;4.13;;;1.17;;
31537;SDS011;18147;51.952;6.146;2022-09-27T07:51:47;2.63;;;1.42;;
31537;SDS011;18147;51.952;6.146;2022-09-27T07:54:32;3.88;;;2.05;;
31537;SDS011;18147;51.952;6.146;2022-09-27T07:57:03;5.38;;;1.50;;
31537;SDS011;18147;51.952;6.146;2022-09-27T07:59:30;2.17;;;1.13;;
31537;SDS011;18147;51.952;6.146;2022-09-27T08:01:55;4.40;;;1.70;;
31537;SDS011;18147;51.952;6.146;2022-09-27T08:04:21;6.30;;;1.33;;
31537;SDS011;18147;51.952;6.146;2022-09-27T08:06:46;4.43;;;1.77;;
31537;SDS011;18147;51.952;6.146;2022-09-27T08:09:12;3.92;;;1.38;;
31537;SDS011;18147;51.952;6.146;2022-09-27T08:11:39;1.92;;;1.27;;
31537;SDS011;18147;51.952;6.146;2022-09-27T08:14:05;8.38;;;2.22;;
31537;SDS011;18147;51.952;6.146;2022-09-27T08:16:32;1.77;;;1.10;;
31537;SDS011;18147;51.952;6.146;2022-09-27T08:19:18;3.70;;;1.30;;
31537;SDS011;18147;51.952;6.146;2022-09-27T08:22:02;6.03;;;1.50;;
31537;SDS011;18147;51.952;6.146;2022-09-27T08:24:35;4.32;;;1.60;;
31537;SDS011;18147;51.952;6.146;2022-09-27T08:27:05;3.95;;;1.05;;
31537;SDS011;18147;51.952;6.146;2022-09-27T08:29:58;4.18;;;1.15;;
31537;SDS011;18147;51.952;6.146;2022-09-27T08:32:24;2.00;;;1.10;;
31537;SDS011;18147;51.952;6.146;2022-09-27T08:34:52;4.75;;;1.05;;
31537;SDS011;18147;51.952;6.146;2022-09-27T08:37:19;4.78;;;0.90;;
31537;SDS011;18147;51.952;6.146;2022-09-27T08:39:46;5.00;;;0.73;;
31537;SDS011;18147;51.952;6.146;2022-09-27T08:45:14;3.67;;;0.82;;
31537;SDS011;18147;51.952;6.146;2022-09-27T08:47:46;2.55;;;1.25;;
31537;SDS011;18147;51.952;6.146;2022-09-27T08:53:05;6.35;;;1.13;;
31537;SDS011;18147;51.952;6.146;2022-09-27T08:55:44;3.55;;;1.48;;
31537;SDS011;18147;51.952;6.146;2022-09-27T09:00:54;4.07;;;1.30;;
31537;SDS011;18147;51.952;6.146;2022-09-27T09:03:28;4.78;;;1.30;;
31537;SDS011;18147;51.952;6.146;2022-09-27T09:22:27;3.30;;;2.20;;
31537;SDS011;18147;51.952;6.146;2022-09-27T09:30:18;9.20;;;2.20;;
31537;SDS011;18147;51.952;6.146;2022-09-27T09:38:44;3.20;;;1.70;;
31537;SDS011;18147;51.952;6.146;2022-09-27T09:41:51;3.08;;;1.67;;
31537;SDS011;18147;51.952;6.146;2022-09-27T09:44:17;8.43;;;1.60;;
31537;SDS011;18147;51.952;6.146;2022-09-27T09:46:49;3.58;;;1.30;;
31537;SDS011;18147;51.952;6.146;2022-09-27T09:52:18;3.85;;;1.77;;
31537;SDS011;18147;51.952;6.146;2022-09-27T09:57:24;2.03;;;1.27;;
31537;SDS011;18147;51.952;6.146;2022-09-27T09:59:59;2.45;;;1.73;;
31537;SDS011;18147;51.952;6.146;2022-09-27T10:02:41;1.95;;;1.50;;
31537;SDS011;18147;51.952;6.146;2022-09-27T10:05:13;2.72;;;2.05;;
31537;SDS011;18147;51.952;6.146;2022-09-27T10:07:41;4.72;;;2.35;;
31537;SDS011;18147;51.952;6.146;2022-09-27T10:10:07;5.28;;;2.55;;
31537;SDS011;18147;51.952;6.146;2022-09-27T10:13:11;3.40;;;2.50;;
31537;SDS011;18147;51.952;6.146;2022-09-27T10:15:43;4.88;;;3.03;;
31537;SDS011;18147;51.952;6.146;2022-09-27T10:18:17;5.45;;;3.10;;
31537;SDS011;18147;51.952;6.146;2022-09-27T10:20:51;10.65;;;3.60;;
31537;SDS011;18147;51.952;6.146;2022-09-27T10:23:20;6.95;;;3.70;;
31537;SDS011;18147;51.952;6.146;2022-09-27T10:26:10;5.43;;;3.20;;
31537;SDS011;18147;51.952;6.146;2022-09-27T10:31:17;6.75;;;2.70;;
31537;SDS011;18147;51.952;6.146;2022-09-27T10:33:58;4.38;;;2.13;;
31537;SDS011;18147;51.952;6.146;2022-09-27T10:36:29;6.00;;;1.98;;
31537;SDS011;18147;51.952;6.146;2022-09-27T10:38:58;4.53;;;2.65;;
31537;SDS011;18147;51.952;6.146;2022-09-27T10:41:38;2.30;;;1.73;;
31537;SDS011;18147;51.952;6.146;2022-09-27T10:44:28;2.00;;;1.30;;
31537;SDS011;18147;51.952;6.146;2022-09-27T10:47:07;5.20;;;0.90;;
31537;SDS011;18147;51.952;6.146;2022-09-27T10:50:04;3.10;;;0.90;;
31537;SDS011;18147;51.952;6.146;2022-09-27T10:53:14;3.22;;;0.73;;
31537;SDS011;18147;51.952;6.146;2022-09-27T10:55:49;2.55;;;0.80;;
31537;SDS011;18147;51.952;6.146;2022-09-27T10:58:26;7.13;;;1.37;;
31537;SDS011;18147;51.952;6.146;2022-09-27T11:00:56;3.78;;;1.08;;
31537;SDS011;18147;51.952;6.146;2022-09-27T11:03:25;2.80;;;1.38;;
31537;SDS011;18147;51.952;6.146;2022-09-27T11:05:54;8.20;;;2.63;;
31537;SDS011;18147;51.952;6.146;2022-09-27T11:08:22;3.20;;;1.08;;
31537;SDS011;18147;51.952;6.146;2022-09-27T11:11:00;2.55;;;1.25;;
31537;SDS011;18147;51.952;6.146;2022-09-27T11:13:26;4.53;;;0.90;;
31537;SDS011;18147;51.952;6.146;2022-09-27T11:16:13;2.85;;;0.98;;
31537;SDS011;18147;51.952;6.146;2022-09-27T11:21:32;3.83;;;0.95;;
31537;SDS011;18147;51.952;6.146;2022-09-27T11:48:54;6.22;;;0.93;;
31537;SDS011;18147;51.952;6.146;2022-09-27T11:57:43;0.45;;;0.40;;
31537;SDS011;18147;51.952;6.146;2022-09-27T12:00:27;3.03;;;0.82;;
31537;SDS011;18147;51.952;6.146;2022-09-27T12:06:12;2.85;;;0.73;;
31537;SDS011;18147;51.952;6.146;2022-09-27T12:14:19;1.15;;;0.52;;
31537;SDS011;18147;51.952;6.146;2022-09-27T12:16:55;2.22;;;0.57;;
31537;SDS011;18147;51.952;6.146;2022-09-27T12:19:23;2.08;;;0.65;;
31537;SDS011;18147;51.952;6.146;2022-09-27T12:22:04;1.67;;;0.65;;
31537;SDS011;18147;51.952;6.146;2022-09-27T12:24:38;1.67;;;0.50;;
31537;SDS011;18147;51.952;6.146;2022-09-27T12:27:39;3.45;;;0.50;;
31537;SDS011;18147;51.952;6.146;2022-09-27T12:30:14;2.88;;;1.15;;
31537;SDS011;18147;51.952;6.146;2022-09-27T12:32:52;2.58;;;0.47;;
31537;SDS011;18147;51.952;6.146;2022-09-27T12:35:38;3.20;;;0.90;;
31537;SDS011;18147;51.952;6.146;2022-09-27T12:38:10;2.30;;;0.60;;
31537;SDS011;18147;51.952;6.146;2022-09-27T12:40:41;2.13;;;0.60;;
31537;SDS011;18147;51.952;6.146;2022-09-27T12:43:17;2.28;;;1.58;;
31537;SDS011;18147;51.952;6.146;2022-09-27T12:52:14;0.75;;;0.40;;
31537;SDS011;18147;51.952;6.146;2022-09-27T13:03:22;0.45;;;0.35;;
31537;SDS011;18147;51.952;6.146;2022-09-27T13:14:26;0.77;;;0.43;;
31537;SDS011;18147;51.952;6.146;2022-09-27T13:16:55;3.47;;;0.60;;
31537;SDS011;18147;51.952;6.146;2022-09-27T13:19:36;2.60;;;0.40;;
31537;SDS011;18147;51.952;6.146;2022-09-27T13:22:03;0.30;;;0.30;;
31537;SDS011;18147;51.952;6.146;2022-09-27T13:27:46;0.55;;;0.30;;
31537;SDS011;18147;51.952;6.146;2022-09-27T13:32:39;1.42;;;0.45;;
31537;SDS011;18147;51.952;6.146;2022-09-27T13:45:56;0.95;;;0.60;;
31537;SDS011;18147;51.952;6.146;2022-09-27T13:53:41;1.33;;;1.10;;
31537;SDS011;18147;51.952;6.146;2022-09-27T13:56:45;3.20;;;1.90;;
31537;SDS011;18147;51.952;6.146;2022-09-27T13:59:24;2.53;;;1.03;;
31537;SDS011;18147;51.952;6.146;2022-09-27T14:02:16;1.38;;;0.82;;
31537;SDS011;18147;51.952;6.146;2022-09-27T14:04:49;2.97;;;0.95;;
31537;SDS011;18147;51.952;6.146;2022-09-27T14:07:17;1.90;;;1.05;;
31537;SDS011;18147;51.952;6.146;2022-09-27T14:09:47;1.83;;;0.90;;
31537;SDS011;18147;51.952;6.146;2022-09-27T14:12:36;3.65;;;1.00;;
31537;SDS011;18147;51.952;6.146;2022-09-27T14:15:07;3.53;;;1.08;;
31537;SDS011;18147;51.952;6.146;2022-09-27T14:17:42;2.08;;;1.10;;
31537;SDS011;18147;51.952;6.146;2022-09-27T14:23:14;2.07;;;0.90;;
31537;SDS011;18147;51.952;6.146;2022-09-27T14:25:48;2.85;;;1.25;;
31537;SDS011;18147;51.952;6.146;2022-09-27T14:28:18;1.75;;;1.05;;
31537;SDS011;18147;51.952;6.146;2022-09-27T14:31:16;1.02;;;0.70;;
31537;SDS011;18147;51.952;6.146;2022-09-27T14:34:04;3.50;;;0.80;;
31537;SDS011;18147;51.952;6.146;2022-09-27T14:36:33;4.32;;;1.98;;
31537;SDS011;18147;51.952;6.146;2022-09-27T14:39:21;6.00;;;2.58;;
31537;SDS011;18147;51.952;6.146;2022-09-27T14:41:55;2.50;;;0.95;;
31537;SDS011;18147;51.952;6.146;2022-09-27T14:44:21;2.17;;;0.90;;
31537;SDS011;18147;51.952;6.146;2022-09-27T14:46:47;2.72;;;0.90;;
31537;SDS011;18147;51.952;6.146;2022-09-27T14:49:47;3.85;;;0.90;;
31537;SDS011;18147;51.952;6.146;2022-09-27T14:52:18;2.33;;;1.20;;
31537;SDS011;18147;51.952;6.146;2022-09-27T14:54:56;4.60;;;1.88;;
31537;SDS011;18147;51.952;6.146;2022-09-27T14:57:22;6.20;;;1.42;;
31537;SDS011;18147;51.952;6.146;2022-09-27T14:59:49;3.90;;;1.25;;
31537;SDS011;18147;51.952;6.146;2022-09-27T15:02:16;2.90;;;1.10;;
31537;SDS011;18147;51.952;6.146;2022-09-27T15:04:45;1.42;;;0.77;;
31537;SDS011;18147;51.952;6.146;2022-09-27T15:07:12;1.33;;;0.80;;
31537;SDS011;18147;51.952;6.146;2022-09-27T15:09:41;2.75;;;1.33;;
31537;SDS011;18147;51.952;6.146;2022-09-27T15:12:09;3.00;;;0.60;;
31537;SDS011;18147;51.952;6.146;2022-09-27T15:14:39;3.88;;;1.17;;
31537;SDS011;18147;51.952;6.146;2022-09-27T15:17:16;0.60;;;0.60;;
31537;SDS011;18147;51.952;6.146;2022-09-27T15:19:57;2.17;;;1.02;;
31537;SDS011;18147;51.952;6.146;2022-09-27T15:25:33;6.10;;;0.80;;
31537;SDS011;18147;51.952;6.146;2022-09-27T15:27:59;6.75;;;0.95;;
31537;SDS011;18147;51.952;6.146;2022-09-27T15:30:32;6.38;;;1.33;;
31537;SDS011;18147;51.952;6.146;2022-09-27T15:33:06;1.23;;;0.85;;
31537;SDS011;18147;51.952;6.146;2022-09-27T15:35:45;3.72;;;0.75;;
31537;SDS011;18147;51.952;6.146;2022-09-27T15:38:30;5.78;;;0.85;;
31537;SDS011;18147;51.952;6.146;2022-09-27T15:40:58;4.20;;;0.95;;
31537;SDS011;18147;51.952;6.146;2022-09-27T15:43:27;3.00;;;0.80;;
31537;SDS011;18147;51.952;6.146;2022-09-27T15:45:56;4.20;;;1.25;;
31537;SDS011;18147;51.952;6.146;2022-09-27T15:48:26;2.15;;;1.05;;
31537;SDS011;18147;51.952;6.146;2022-09-27T15:50:52;2.55;;;1.20;;
31537;SDS011;18147;51.952;6.146;2022-09-27T15:55:59;3.17;;;1.20;;
31537;SDS011;18147;51.952;6.146;2022-09-27T15:58:25;3.92;;;1.10;;
31537;SDS011;18147;51.952;6.146;2022-09-27T16:00:53;6.07;;;0.98;;
31537;SDS011;18147;51.952;6.146;2022-09-27T16:03:24;2.03;;;0.93;;
31537;SDS011;18147;51.952;6.146;2022-09-27T16:05:51;3.08;;;0.88;;
31537;SDS011;18147;51.952;6.146;2022-09-27T16:08:20;2.97;;;1.00;;
31537;SDS011;18147;51.952;6.146;2022-09-27T16:10:49;5.57;;;1.10;;
31537;SDS011;18147;51.952;6.146;2022-09-27T16:13:16;3.78;;;1.05;;
31537;SDS011;18147;51.952;6.146;2022-09-27T16:15:42;5.15;;;1.00;;
31537;SDS011;18147;51.952;6.146;2022-09-27T16:18:09;3.60;;;1.48;;
31537;SDS011;18147;51.952;6.146;2022-09-27T16:20:34;1.35;;;1.25;;
31537;SDS011;18147;51.952;6.146;2022-09-27T16:23:00;5.88;;;1.45;;
31537;SDS011;18147;51.952;6.146;2022-09-27T16:25:26;1.98;;;1.40;;
31537;SDS011;18147;51.952;6.146;2022-09-27T16:27:53;2.42;;;2.03;;
31537;SDS011;18147;51.952;6.146;2022-09-27T16:30:22;4.00;;;1.65;;
31537;SDS011;18147;51.952;6.146;2022-09-27T16:32:47;1.77;;;1.67;;
31537;SDS011;18147;51.952;6.146;2022-09-27T16:35:14;2.13;;;1.30;;
31537;SDS011;18147;51.952;6.146;2022-09-27T16:37:41;2.22;;;1.40;;
31537;SDS011;18147;51.952;6.146;2022-09-27T16:40:07;2.45;;;1.70;;
31537;SDS011;18147;51.952;6.146;2022-09-27T16:42:34;3.42;;;1.70;;
31537;SDS011;18147;51.952;6.146;2022-09-27T16:45:00;6.70;;;2.33;;
31537;SDS011;18147;51.952;6.146;2022-09-27T16:47:30;3.72;;;2.03;;
31537;SDS011;18147;51.952;6.146;2022-09-27T16:49:55;2.90;;;1.77;;
31537;SDS011;18147;51.952;6.146;2022-09-27T16:52:40;3.00;;;1.70;;
31537;SDS011;18147;51.952;6.146;2022-09-27T16:55:07;4.15;;;2.72;;
31537;SDS011;18147;51.952;6.146;2022-09-27T16:57:33;3.85;;;2.10;;
31537;SDS011;18147;51.952;6.146;2022-09-27T16:59:59;7.95;;;2.88;;
31537;SDS011;18147;51.952;6.146;2022-09-27T17:02:25;5.93;;;2.63;;
31537;SDS011;18147;51.952;6.146;2022-09-27T17:04:51;6.07;;;2.88;;
31537;SDS011;18147;51.952;6.146;2022-09-27T17:07:17;5.50;;;2.90;;
31537;SDS011;18147;51.952;6.146;2022-09-27T17:09:44;7.60;;;3.10;;
31537;SDS011;18147;51.952;6.146;2022-09-27T17:12:10;3.35;;;2.38;;
31537;SDS011;18147;51.952;6.146;2022-09-27T17:14:36;3.00;;;2.33;;
31537;SDS011;18147;51.952;6.146;2022-09-27T17:17:02;4.35;;;2.10;;
31537;SDS011;18147;51.952;6.146;2022-09-27T17:19:27;5.28;;;2.50;;
31537;SDS011;18147;51.952;6.146;2022-09-27T17:21:52;7.65;;;2.13;;
31537;SDS011;18147;51.952;6.146;2022-09-27T17:24:20;5.53;;;2.13;;
31537;SDS011;18147;51.952;6.146;2022-09-27T17:26:45;9.10;;;3.05;;
31537;SDS011;18147;51.952;6.146;2022-09-27T17:29:11;5.00;;;2.90;;
31537;SDS011;18147;51.952;6.146;2022-09-27T17:31:37;6.13;;;3.13;;
31537;SDS011;18147;51.952;6.146;2022-09-27T17:34:04;5.28;;;3.70;;
31537;SDS011;18147;51.952;6.146;2022-09-27T17:36:31;6.15;;;3.63;;
31537;SDS011;18147;51.952;6.146;2022-09-27T17:38:58;4.63;;;3.03;;
31537;SDS011;18147;51.952;6.146;2022-09-27T17:41:25;4.40;;;2.83;;
31537;SDS011;18147;51.952;6.146;2022-09-27T17:43:56;7.97;;;3.40;;
31537;SDS011;18147;51.952;6.146;2022-09-27T17:46:26;7.05;;;3.10;;
31537;SDS011;18147;51.952;6.146;2022-09-27T17:48:53;5.30;;;3.08;;
31537;SDS011;18147;51.952;6.146;2022-09-27T17:51:39;4.28;;;2.40;;
31537;SDS011;18147;51.952;6.146;2022-09-27T17:54:06;9.18;;;2.83;;
31537;SDS011;18147;51.952;6.146;2022-09-27T17:56:36;7.53;;;1.90;;
31537;SDS011;18147;51.952;6.146;2022-09-27T17:59:06;5.95;;;1.88;;
31537;SDS011;18147;51.952;6.146;2022-09-27T18:01:33;4.32;;;2.38;;
31537;SDS011;18147;51.952;6.146;2022-09-27T18:04:02;2.65;;;1.75;;
31537;SDS011;18147;51.952;6.146;2022-09-27T18:06:28;4.05;;;1.58;;
31537;SDS011;18147;51.952;6.146;2022-09-27T18:08:54;6.38;;;1.83;;
31537;SDS011;18147;51.952;6.146;2022-09-27T18:11:21;4.93;;;2.20;;
31537;SDS011;18147;51.952;6.146;2022-09-27T18:13:52;7.55;;;2.22;;
31537;SDS011;18147;51.952;6.146;2022-09-27T18:16:24;4.20;;;2.35;;
31537;SDS011;18147;51.952;6.146;2022-09-27T18:18:53;5.57;;;2.65;;
31537;SDS011;18147;51.952;6.146;2022-09-27T18:21:19;7.90;;;3.80;;